createdAt,value
2022-11-28T00:00:39.552Z,-1.30
2022-11-28T00:03:26.094Z,-1.30
2022-11-28T00:06:12.823Z,-1.30
2022-11-28T00:08:59.484Z,-1.30
2022-11-28T00:11:45.963Z,-1.30
2022-11-28T00:14:32.466Z,-1.40
2022-11-28T00:17:18.936Z,-1.40
2022-11-28T00:20:05.439Z,-1.50
2022-11-28T00:22:51.913Z,-1.50
2022-11-28T00:25:38.407Z,-1.50
2022-11-28T00:28:24.887Z,-1.50
2022-11-28T00:31:11.384Z,-1.50
2022-11-28T00:33:57.862Z,-1.50
2022-11-28T00:36:44.378Z,-1.50
2022-11-28T00:39:30.864Z,-1.40
2022-11-28T00:42:17.370Z,-1.40
2022-11-28T00:45:03.840Z,-1.40
2022-11-28T00:47:50.387Z,-1.40
2022-11-28T00:50:36.867Z,-1.40
2022-11-28T00:53:23.367Z,-1.40
2022-11-28T00:56:09.839Z,-1.40
2022-11-28T00:58:56.339Z,-1.30
2022-11-28T01:01:42.875Z,-1.30
2022-11-28T01:04:29.526Z,-1.30
2022-11-28T01:07:16.049Z,-1.30
2022-11-28T01:10:02.583Z,-1.30
2022-11-28T01:12:49.063Z,-1.30
2022-11-28T01:15:35.611Z,-1.40
2022-11-28T01:18:22.120Z,-1.30
2022-11-28T01:21:08.595Z,-1.30
2022-11-28T01:23:55.092Z,-1.30
2022-11-28T01:26:41.567Z,-1.30
2022-11-28T01:29:28.054Z,-1.30
2022-11-28T01:32:14.519Z,-1.30
2022-11-28T01:35:01.013Z,-1.20
2022-11-28T01:37:47.497Z,-1.20
2022-11-28T01:40:34.028Z,-1.30
2022-11-28T01:43:20.540Z,-1.30
2022-11-28T01:46:07.007Z,-1.20
2022-11-28T01:48:53.509Z,-1.30
2022-11-28T01:51:39.989Z,-1.30
2022-11-28T01:54:26.495Z,-1.30
2022-11-28T01:57:12.975Z,-1.40
2022-11-28T01:59:59.523Z,-1.40
2022-11-28T02:02:45.994Z,-1.40
2022-11-28T02:05:32.531Z,-1.40
2022-11-28T02:08:19.004Z,-1.40
2022-11-28T02:11:05.542Z,-1.40
2022-11-28T02:13:52.016Z,-1.50
2022-11-28T02:16:38.561Z,-1.50
2022-11-28T02:19:25.078Z,-1.40
2022-11-28T02:22:11.578Z,-1.50
2022-11-28T02:24:58.060Z,-1.50
2022-11-28T02:27:44.571Z,-1.50
2022-11-28T02:30:31.083Z,-1.60
2022-11-28T02:33:17.579Z,-1.60
2022-11-28T02:36:04.043Z,-1.70
2022-11-28T02:38:50.535Z,-1.80
2022-11-28T02:41:37.006Z,-1.70
2022-11-28T02:44:23.487Z,-1.70
2022-11-28T02:47:10.039Z,-1.70
2022-11-28T02:49:56.608Z,-1.70
2022-11-28T02:52:43.071Z,-1.60
2022-11-28T02:55:29.551Z,-1.60
2022-11-28T02:58:16.023Z,-1.60
2022-11-28T03:01:02.626Z,-1.60
2022-11-28T03:03:49.147Z,-1.60
2022-11-28T03:06:35.626Z,-1.60
2022-11-28T03:09:22.108Z,-1.60
2022-11-28T03:12:08.603Z,-1.60
2022-11-28T03:14:55.080Z,-1.60
2022-11-28T03:17:41.587Z,-1.60
2022-11-28T03:20:28.059Z,-1.70
2022-11-28T03:23:14.543Z,-1.70
2022-11-28T03:26:01.047Z,-1.70
2022-11-28T03:28:48.527Z,-1.70
2022-11-28T03:31:35.065Z,-1.70
2022-11-28T03:34:21.546Z,-1.70
2022-11-28T03:37:08.048Z,-1.70
2022-11-28T03:39:54.556Z,-1.60
2022-11-28T03:42:41.044Z,-1.60
2022-11-28T03:45:27.538Z,-1.60
2022-11-28T03:48:14.009Z,-1.50
2022-11-28T03:51:00.507Z,-1.50
2022-11-28T03:53:46.979Z,-1.60
2022-11-28T03:56:33.484Z,-1.60
2022-11-28T03:59:19.959Z,-1.60
2022-11-28T04:02:06.464Z,-1.60
2022-11-28T04:04:52.946Z,-1.60
2022-11-28T04:07:39.561Z,-1.60
2022-11-28T04:10:26.082Z,-1.70
2022-11-28T04:13:12.630Z,-1.70
2022-11-28T04:15:59.242Z,-1.60
2022-11-28T04:18:45.743Z,-1.60
2022-11-28T04:21:32.293Z,-1.60
2022-11-28T04:24:18.782Z,-1.60
2022-11-28T04:27:05.258Z,-1.60
2022-11-28T04:29:51.773Z,-1.50
2022-11-28T04:32:38.247Z,-1.60
2022-11-28T04:35:24.750Z,-1.50
2022-11-28T04:38:11.255Z,-1.50
2022-11-28T04:40:57.768Z,-1.50
2022-11-28T04:43:44.242Z,-1.40
2022-11-28T04:46:30.739Z,-1.40
2022-11-28T04:49:17.217Z,-1.50
2022-11-28T04:52:03.703Z,-1.50
2022-11-28T04:54:50.185Z,-1.60
2022-11-28T04:57:36.659Z,-1.50
2022-11-28T05:00:23.150Z,-1.60
2022-11-28T05:03:09.624Z,-1.50
2022-11-28T05:05:56.130Z,-1.50
2022-11-28T05:08:42.683Z,-1.50
2022-11-28T05:11:29.213Z,-1.60
2022-11-28T05:14:15.684Z,-1.60
2022-11-28T05:17:02.166Z,-1.50
2022-11-28T05:19:48.676Z,-1.50
2022-11-28T05:22:35.161Z,-1.50
2022-11-28T05:25:21.639Z,-1.60
2022-11-28T05:28:08.123Z,-1.60
2022-11-28T05:30:54.625Z,-1.60
2022-11-28T05:33:41.090Z,-1.60
2022-11-28T05:36:27.588Z,-1.60
2022-11-28T05:39:14.059Z,-1.70
2022-11-28T05:42:00.563Z,-1.70
2022-11-28T05:44:47.074Z,-1.70
2022-11-28T05:47:33.557Z,-1.80
2022-11-28T05:50:20.043Z,-1.80
2022-11-28T05:53:06.527Z,-1.80
2022-11-28T05:55:53.007Z,-1.80
2022-11-28T05:58:39.521Z,-1.90
2022-11-28T06:01:26.046Z,-1.80
2022-11-28T06:04:12.575Z,-1.80
2022-11-28T06:06:59.148Z,-1.80
2022-11-28T06:09:45.696Z,-1.70
2022-11-28T06:12:32.310Z,-1.70
2022-11-28T06:15:18.781Z,-1.80
2022-11-28T06:18:05.276Z,-1.90
2022-11-28T06:20:52.760Z,-2.00
2022-11-28T06:23:39.254Z,-2.00
2022-11-28T06:26:25.719Z,-2.00
2022-11-28T06:29:12.205Z,-1.90
2022-11-28T06:31:58.770Z,-1.90
2022-11-28T06:34:45.272Z,-1.90
2022-11-28T06:37:31.753Z,-1.90
2022-11-28T06:40:18.250Z,-1.90
2022-11-28T06:43:04.754Z,-2.00
2022-11-28T06:45:51.312Z,-2.10
2022-11-28T06:48:37.800Z,-2.20
2022-11-28T06:51:24.304Z,-2.20
2022-11-28T06:54:10.776Z,-2.40
2022-11-28T06:56:57.274Z,-2.50
2022-11-28T06:59:43.831Z,-2.40
2022-11-28T07:02:31.499Z,-2.30
2022-11-28T07:05:18.000Z,-2.30
2022-11-28T07:08:04.533Z,-2.10
2022-11-28T07:10:51.096Z,-2.10
2022-11-28T07:13:37.596Z,-1.90
2022-11-28T07:16:24.165Z,-1.90
2022-11-28T07:19:10.705Z,-1.80
2022-11-28T07:21:58.528Z,-1.80
2022-11-28T07:24:45.030Z,-1.60
2022-11-28T07:27:31.511Z,-1.60
2022-11-28T07:30:18.035Z,-1.40
2022-11-28T07:33:04.516Z,-1.30
2022-11-28T07:35:51.051Z,-1.20
2022-11-28T07:38:37.521Z,-1.10
2022-11-28T07:41:26.707Z,-1.00
2022-11-28T07:44:13.358Z,-0.80
2022-11-28T07:46:59.926Z,-0.70
2022-11-28T07:49:46.501Z,-0.60
2022-11-28T07:52:32.979Z,-0.50
2022-11-28T07:55:19.480Z,-0.40
2022-11-28T07:58:05.943Z,-0.30
2022-11-28T08:00:52.497Z,-0.20
2022-11-28T08:03:38.971Z,-0.20
2022-11-28T08:06:25.499Z,-0.20
2022-11-28T08:09:11.983Z,-0.10
2022-11-28T08:11:59.529Z,-0.10
2022-11-28T08:14:46.000Z,0.00
2022-11-28T08:17:32.495Z,0.00
2022-11-28T08:20:19.070Z,0.10
2022-11-28T08:23:05.580Z,0.10
2022-11-28T08:25:52.085Z,0.20
2022-11-28T08:28:38.555Z,0.30
2022-11-28T08:31:25.123Z,0.40
2022-11-28T08:34:11.703Z,0.50
2022-11-28T08:36:58.181Z,0.50
2022-11-28T08:39:44.932Z,0.50
2022-11-28T08:42:31.553Z,0.50
2022-11-28T08:45:18.097Z,0.50
2022-11-28T08:48:04.569Z,0.60
2022-11-28T08:50:51.058Z,0.70
2022-11-28T08:53:37.534Z,0.80
2022-11-28T08:56:24.022Z,0.90
2022-11-28T08:59:10.505Z,1.00
2022-11-28T09:01:57.031Z,1.10
2022-11-28T09:04:43.505Z,1.20
2022-11-28T09:07:30.027Z,1.20
2022-11-28T09:10:16.561Z,1.30
2022-11-28T09:13:03.068Z,1.40
2022-11-28T09:15:52.592Z,1.50
2022-11-28T09:18:40.282Z,1.50
2022-11-28T09:21:26.748Z,1.60
2022-11-28T09:24:13.250Z,1.70
2022-11-28T09:26:59.738Z,1.70
2022-11-28T09:29:46.240Z,1.80
2022-11-28T09:32:32.710Z,1.80
2022-11-28T09:35:19.211Z,1.90
2022-11-28T09:38:05.683Z,1.90
2022-11-28T09:40:52.178Z,1.90
2022-11-28T09:43:38.655Z,1.90
2022-11-28T09:46:25.228Z,2.00
2022-11-28T09:49:11.768Z,2.00
2022-11-28T09:51:58.324Z,2.00
2022-11-28T09:54:44.801Z,2.10
2022-11-28T09:57:31.326Z,2.10
2022-11-28T10:00:17.854Z,2.10
2022-11-28T10:03:04.395Z,2.20
2022-11-28T10:05:50.864Z,2.20
2022-11-28T10:08:37.366Z,2.30
2022-11-28T10:11:23.872Z,2.30
2022-11-28T10:14:10.372Z,2.40
2022-11-28T10:16:56.870Z,2.40
2022-11-28T10:19:59.088Z,2.50
2022-11-28T10:22:45.783Z,2.40
2022-11-28T10:25:32.274Z,2.40
2022-11-28T10:28:18.743Z,2.40
2022-11-28T10:31:05.254Z,2.50
2022-11-28T10:33:51.774Z,2.50
2022-11-28T10:36:38.270Z,2.60
2022-11-28T10:39:24.739Z,2.70
2022-11-28T10:42:11.242Z,2.70
2022-11-28T10:44:57.716Z,2.70
2022-11-28T10:47:44.212Z,2.90
2022-11-28T10:50:32.384Z,3.00
2022-11-28T10:53:19.083Z,3.00
2022-11-28T10:56:11.112Z,2.90
2022-11-28T10:58:57.994Z,2.80
2022-11-28T11:01:49.797Z,2.90
2022-11-28T11:04:36.757Z,3.00
2022-11-28T11:07:29.138Z,3.10
2022-11-28T11:10:16.166Z,3.20
2022-11-28T11:13:02.660Z,3.20
2022-11-28T11:15:49.200Z,3.30
2022-11-28T11:18:35.828Z,3.30
2022-11-28T11:21:22.322Z,3.40
2022-11-28T11:24:08.808Z,3.40
2022-11-28T11:26:55.279Z,3.40
2022-11-28T11:29:43.297Z,3.50
2022-11-28T11:32:31.144Z,3.50
2022-11-28T11:35:17.618Z,3.50
2022-11-28T11:38:04.120Z,3.60
2022-11-28T11:40:50.598Z,3.60
2022-11-28T11:43:37.109Z,3.60
2022-11-28T11:46:23.669Z,3.60
2022-11-28T11:49:10.238Z,3.70
2022-11-28T11:51:56.706Z,3.70
2022-11-28T11:54:43.209Z,3.70
2022-11-28T11:57:34.205Z,3.70
2022-11-28T12:00:21.160Z,3.80
2022-11-28T12:03:07.749Z,3.80
2022-11-28T12:09:00.825Z,3.70
2022-11-28T12:11:47.340Z,3.70
2022-11-28T12:14:34.026Z,3.70
2022-11-28T12:17:47.327Z,3.70
2022-11-28T12:20:27.040Z,3.70
2022-11-28T12:23:17.397Z,3.70
2022-11-28T12:26:04.283Z,3.70
2022-11-28T12:28:50.764Z,3.70
2022-11-28T12:31:37.479Z,3.70
2022-11-28T12:34:24.008Z,3.70
2022-11-28T12:37:10.515Z,3.70
2022-11-28T12:39:56.991Z,3.80
2022-11-28T12:42:43.490Z,3.80
2022-11-28T12:45:30.053Z,3.80
2022-11-28T12:48:16.520Z,3.90
2022-11-28T12:51:03.013Z,3.90
2022-11-28T12:53:49.610Z,3.90
2022-11-28T12:56:36.111Z,4.00
2022-11-28T12:59:22.589Z,4.00
2022-11-28T13:02:10.023Z,3.90
2022-11-28T13:04:56.748Z,3.70
2022-11-28T13:07:43.268Z,3.70
2022-11-28T13:10:29.813Z,3.70
2022-11-28T13:13:16.301Z,3.60
2022-11-28T13:16:02.835Z,3.60
2022-11-28T13:18:49.365Z,3.60
2022-11-28T13:21:35.925Z,3.50
2022-11-28T13:24:22.437Z,3.40
2022-11-28T13:27:08.936Z,3.30
2022-11-28T13:29:55.449Z,3.30
2022-11-28T13:32:41.961Z,3.30
2022-11-28T13:35:28.438Z,3.30
2022-11-28T13:41:52.776Z,3.30
2022-11-28T13:44:27.929Z,3.20
2022-11-28T13:47:14.401Z,3.10
2022-11-28T13:50:02.255Z,3.10
2022-11-28T13:52:48.890Z,3.10
2022-11-28T13:55:35.405Z,3.10
2022-11-28T13:58:22.246Z,3.10
2022-11-28T14:01:09.044Z,3.20
2022-11-28T14:03:55.532Z,3.20
2022-11-28T14:06:42.080Z,3.20
2022-11-28T14:09:28.592Z,3.20
2022-11-28T14:12:15.096Z,3.20
2022-11-28T14:15:01.609Z,3.20
2022-11-28T14:17:48.129Z,3.10
2022-11-28T14:20:34.656Z,3.10
2022-11-28T14:23:21.139Z,3.10
2022-11-28T14:26:08.688Z,3.10
2022-11-28T14:28:55.172Z,3.10
2022-11-28T14:31:55.185Z,3.00
2022-11-28T14:34:48.312Z,3.00
2022-11-28T14:37:34.940Z,3.00
2022-11-28T14:40:21.489Z,3.00
2022-11-28T14:43:07.964Z,3.00
2022-11-28T14:45:54.556Z,3.10
2022-11-28T14:48:41.287Z,3.10
2022-11-28T14:51:27.949Z,3.10
2022-11-28T14:54:14.424Z,3.10
2022-11-28T14:57:00.933Z,3.00
2022-11-28T14:59:47.420Z,3.00
2022-11-28T15:02:34.014Z,3.00
2022-11-28T15:05:20.544Z,3.00
2022-11-28T15:08:07.035Z,3.00
2022-11-28T15:10:53.512Z,2.90
2022-11-28T15:13:40.038Z,2.90
2022-11-28T15:16:26.558Z,2.80
2022-11-28T15:19:13.095Z,2.80
2022-11-28T15:21:59.566Z,2.80
2022-11-28T15:24:46.130Z,2.70
2022-11-28T15:27:32.616Z,2.70
2022-11-28T15:30:19.219Z,2.70
2022-11-28T15:33:05.703Z,2.70
2022-11-28T15:35:52.248Z,2.70
2022-11-28T15:38:38.735Z,2.60
2022-11-28T15:41:25.335Z,2.60
2022-11-28T15:44:11.820Z,2.60
2022-11-28T15:46:58.439Z,2.60
2022-11-28T15:49:44.923Z,2.50
2022-11-28T15:52:31.441Z,2.50
2022-11-28T15:55:18.915Z,2.50
2022-11-28T15:58:05.411Z,2.50
2022-11-28T16:00:51.965Z,2.40
2022-11-28T16:03:38.494Z,2.40
2022-11-28T16:06:24.966Z,2.40
2022-11-28T16:09:11.455Z,2.40
2022-11-28T16:11:57.938Z,2.40
2022-11-28T16:14:44.963Z,2.30
2022-11-28T16:17:31.584Z,2.30
2022-11-28T16:20:18.087Z,2.30
2022-11-28T16:23:04.599Z,2.30
2022-11-28T16:25:51.104Z,2.30
2022-11-28T16:28:37.620Z,2.30
2022-11-28T16:31:24.169Z,2.20
2022-11-28T16:34:10.693Z,2.20
2022-11-28T16:36:57.192Z,2.20
2022-11-28T16:39:43.893Z,2.10
2022-11-28T16:42:30.641Z,2.10
2022-11-28T16:45:17.115Z,2.10
2022-11-28T16:48:03.803Z,2.10
2022-11-28T16:50:50.292Z,2.00
2022-11-28T16:53:36.803Z,1.90
2022-11-28T16:56:23.350Z,1.90
2022-11-28T16:59:09.843Z,1.90
2022-11-28T17:01:57.408Z,1.90
2022-11-28T17:04:43.995Z,1.90
2022-11-28T17:07:30.507Z,1.90
2022-11-28T17:10:17.070Z,1.90
2022-11-28T17:13:03.578Z,1.80
2022-11-28T17:15:50.080Z,1.80
2022-11-28T17:18:36.580Z,1.80
2022-11-28T17:21:23.167Z,1.70
2022-11-28T17:24:09.671Z,1.70
2022-11-28T17:26:56.163Z,1.80
2022-11-28T17:29:43.051Z,1.80
2022-11-28T17:32:29.791Z,1.70
2022-11-28T17:35:16.376Z,1.80
2022-11-28T17:38:02.867Z,1.80
2022-11-28T17:40:49.407Z,1.80
2022-11-28T17:43:39.060Z,1.80
2022-11-28T17:46:25.983Z,1.80
2022-11-28T17:49:12.470Z,1.80
2022-11-28T17:51:58.988Z,1.80
2022-11-28T17:54:45.478Z,1.80
2022-11-28T17:57:32.069Z,1.80
2022-11-28T18:00:18.562Z,1.80
2022-11-28T18:03:05.076Z,1.80
2022-11-28T18:05:51.547Z,1.80
2022-11-28T18:08:38.064Z,1.80
2022-11-28T18:11:24.546Z,1.80
2022-11-28T18:14:11.058Z,1.80
2022-11-28T18:16:57.576Z,1.80
2022-11-28T18:19:44.403Z,1.90
2022-11-28T18:22:32.162Z,1.80
2022-11-28T18:25:18.680Z,1.80
2022-11-28T18:28:05.155Z,1.80
2022-11-28T18:30:51.678Z,1.80
2022-11-28T18:33:38.150Z,1.80
2022-11-28T18:36:24.661Z,1.80
2022-11-28T18:39:11.144Z,1.80
2022-11-28T18:41:57.651Z,1.70
2022-11-28T18:44:44.184Z,1.80
2022-11-28T18:47:30.713Z,1.70
2022-11-28T18:50:17.187Z,1.70
2022-11-28T18:53:03.728Z,1.80
2022-11-28T18:55:50.200Z,1.80
2022-11-28T18:58:36.692Z,1.80
2022-11-28T19:01:23.252Z,1.70
2022-11-28T19:04:09.767Z,1.60
2022-11-28T19:06:56.288Z,1.50
2022-11-28T19:09:43.032Z,1.40
2022-11-28T19:12:29.715Z,1.40
2022-11-28T19:15:16.204Z,1.40
2022-11-28T19:18:02.675Z,1.50
2022-11-28T19:20:49.184Z,1.50
2022-11-28T19:23:35.665Z,1.60
2022-11-28T19:26:22.156Z,1.60
2022-11-28T19:29:08.668Z,1.70
2022-11-28T19:31:55.207Z,1.70
2022-11-28T19:34:41.708Z,1.60
2022-11-28T19:37:28.191Z,1.60
2022-11-28T19:40:14.688Z,1.60
2022-11-28T19:43:01.155Z,1.50
2022-11-28T19:45:47.710Z,1.40
2022-11-28T19:48:34.249Z,1.50
2022-11-28T19:51:20.754Z,1.60
2022-11-28T19:54:07.286Z,1.60
2022-11-28T19:56:53.879Z,1.60
2022-11-28T19:59:40.367Z,1.60
2022-11-28T20:02:26.864Z,1.70
2022-11-28T20:05:13.404Z,1.70
2022-11-28T20:07:59.983Z,1.70
2022-11-28T20:10:46.571Z,1.70
2022-11-28T20:13:33.044Z,1.80
2022-11-28T20:16:19.600Z,1.70
2022-11-28T20:19:06.107Z,1.70
2022-11-28T20:21:52.586Z,1.70
2022-11-28T20:24:39.079Z,1.70
2022-11-28T20:27:25.547Z,1.70
2022-11-28T20:30:12.100Z,1.70
2022-11-28T20:32:58.578Z,1.70
2022-11-28T20:35:45.085Z,1.80
2022-11-28T20:38:31.559Z,1.90
2022-11-28T20:41:18.058Z,1.80
2022-11-28T20:44:04.571Z,1.80
2022-11-28T20:46:51.047Z,1.80
2022-11-28T20:49:37.548Z,1.80
2022-11-28T20:52:24.024Z,1.70
2022-11-28T20:55:10.524Z,1.70
2022-11-28T20:57:56.996Z,1.70
2022-11-28T21:00:43.572Z,1.60
2022-11-28T21:03:30.080Z,1.60
2022-11-28T21:06:16.580Z,1.60
2022-11-28T21:09:03.065Z,1.60
2022-11-28T21:12:04.872Z,1.60
2022-11-28T21:14:51.369Z,1.60
2022-11-28T21:17:37.882Z,1.50
2022-11-28T21:20:24.380Z,1.60
2022-11-28T21:23:10.856Z,1.60
2022-11-28T21:25:57.384Z,1.60
2022-11-28T21:28:43.883Z,1.60
2022-11-28T21:31:30.397Z,1.50
2022-11-28T21:34:17.084Z,1.50
2022-11-28T21:37:03.622Z,1.60
2022-11-28T21:39:50.090Z,1.60
2022-11-28T21:42:36.585Z,1.60
2022-11-28T21:45:23.068Z,1.50
2022-11-28T21:48:09.569Z,1.50
2022-11-28T21:50:56.037Z,1.40
2022-11-28T21:53:42.531Z,1.50
2022-11-28T21:56:29.026Z,1.60
2022-11-28T21:59:15.495Z,1.70
2022-11-28T22:02:04.046Z,1.70
2022-11-28T22:04:53.724Z,1.70
2022-11-28T22:07:41.269Z,1.80
2022-11-28T22:10:27.925Z,1.80
2022-11-28T22:13:14.391Z,1.80
2022-11-28T22:16:01.008Z,1.90
2022-11-28T22:18:47.500Z,1.90
2022-11-28T22:24:40.466Z,1.90
2022-11-28T22:27:26.991Z,1.90
2022-11-28T22:30:13.524Z,1.90
2022-11-28T22:33:00.028Z,1.90
2022-11-28T22:35:46.508Z,1.90
2022-11-28T22:38:33.032Z,1.80
2022-11-28T22:41:24.822Z,1.90
2022-11-28T22:44:14.679Z,1.90
2022-11-28T22:47:01.145Z,1.90
2022-11-28T22:49:47.649Z,2.00
2022-11-28T22:52:34.138Z,2.00
2022-11-28T22:55:20.641Z,2.00
2022-11-28T22:58:07.115Z,2.00
2022-11-28T23:00:53.616Z,2.10
2022-11-28T23:03:40.128Z,2.00
2022-11-28T23:06:26.641Z,2.00
2022-11-28T23:09:13.112Z,2.00
2022-11-28T23:11:59.630Z,1.80
2022-11-28T23:14:46.449Z,1.80
2022-11-28T23:17:33.166Z,1.90
2022-11-28T23:20:19.659Z,2.10
2022-11-28T23:23:06.126Z,2.10
2022-11-28T23:25:52.611Z,2.10
2022-11-28T23:28:39.082Z,2.10
2022-11-28T23:31:25.655Z,2.20
2022-11-28T23:34:12.164Z,2.20
2022-11-28T23:36:58.770Z,2.10
2022-11-28T23:39:45.244Z,2.10
2022-11-28T23:42:31.750Z,2.10
2022-11-28T23:45:18.224Z,2.10
2022-11-28T23:48:04.716Z,2.10
2022-11-28T23:50:51.184Z,2.10
2022-11-28T23:53:37.681Z,2.20
2022-11-28T23:56:24.160Z,2.10
2022-11-28T23:59:10.667Z,2.20
